sensor_id;sensor_type;location;lat;lon;timestamp;P1;durP1;ratioP1;P2;durP2;ratioP2
32788;SDS011;19141;48.980;8.410;2023-02-26T05:22:32;2.47;;;1.73;;
32788;SDS011;19141;48.980;8.410;2023-02-26T05:24:57;1.40;;;1.30;;
32788;SDS011;19141;48.980;8.410;2023-02-26T05:27:23;1.52;;;1.42;;
32788;SDS011;19141;48.980;8.410;2023-02-26T05:29:49;2.55;;;1.40;;
32788;SDS011;19141;48.980;8.410;2023-02-26T05:32:15;2.30;;;1.40;;
32788;SDS011;19141;48.980;8.410;2023-02-26T05:34:40;1.40;;;1.30;;
32788;SDS011;19141;48.980;8.410;2023-02-26T05:37:06;2.22;;;2.03;;
32788;SDS011;19141;48.980;8.410;2023-02-26T05:39:31;1.42;;;1.27;;
32788;SDS011;19141;48.980;8.410;2023-02-26T05:41:57;0.77;;;0.77;;
32788;SDS011;19141;48.980;8.410;2023-02-26T05:44:22;1.70;;;1.25;;
32788;SDS011;19141;48.980;8.410;2023-02-26T05:46:48;1.08;;;0.90;;
32788;SDS011;19141;48.980;8.410;2023-02-26T05:49:13;1.80;;;1.35;;
32788;SDS011;19141;48.980;8.410;2023-02-26T05:51:39;1.05;;;1.05;;
32788;SDS011;19141;48.980;8.410;2023-02-26T05:54:06;1.40;;;1.30;;
32788;SDS011;19141;48.980;8.410;2023-02-26T05:56:32;3.42;;;2.63;;
32788;SDS011;19141;48.980;8.410;2023-02-26T05:58:57;2.95;;;2.15;;
32788;SDS011;19141;48.980;8.410;2023-02-26T06:01:23;0.88;;;0.88;;
32788;SDS011;19141;48.980;8.410;2023-02-26T06:03:48;1.55;;;1.27;;
32788;SDS011;19141;48.980;8.410;2023-02-26T06:06:14;1.23;;;1.13;;
32788;SDS011;19141;48.980;8.410;2023-02-26T06:08:45;2.60;;;1.20;;
32788;SDS011;19141;48.980;8.410;2023-02-26T06:11:10;1.40;;;1.30;;
32788;SDS011;19141;48.980;8.410;2023-02-26T06:13:36;1.38;;;1.13;;
32788;SDS011;19141;48.980;8.410;2023-02-26T06:16:03;1.35;;;1.10;;
32788;SDS011;19141;48.980;8.410;2023-02-26T06:18:29;2.00;;;1.63;;
32788;SDS011;19141;48.980;8.410;2023-02-26T06:20:56;1.70;;;1.27;;
32788;SDS011;19141;48.980;8.410;2023-02-26T06:23:22;1.35;;;1.20;;
32788;SDS011;19141;48.980;8.410;2023-02-26T06:25:49;1.77;;;1.25;;
32788;SDS011;19141;48.980;8.410;2023-02-26T06:28:15;1.83;;;1.33;;
32788;SDS011;19141;48.980;8.410;2023-02-26T06:30:41;2.03;;;1.30;;
32788;SDS011;19141;48.980;8.410;2023-02-26T06:33:06;1.08;;;1.02;;
32788;SDS011;19141;48.980;8.410;2023-02-26T06:35:31;1.73;;;1.63;;
32788;SDS011;19141;48.980;8.410;2023-02-26T06:37:57;1.30;;;1.20;;
32788;SDS011;19141;48.980;8.410;2023-02-26T06:40:22;1.10;;;1.00;;
32788;SDS011;19141;48.980;8.410;2023-02-26T06:42:48;1.55;;;1.38;;
32788;SDS011;19141;48.980;8.410;2023-02-26T06:45:13;1.15;;;1.10;;
32788;SDS011;19141;48.980;8.410;2023-02-26T06:47:39;1.35;;;1.17;;
32788;SDS011;19141;48.980;8.410;2023-02-26T06:50:04;2.83;;;2.00;;
32788;SDS011;19141;48.980;8.410;2023-02-26T06:52:30;2.53;;;1.73;;
32788;SDS011;19141;48.980;8.410;2023-02-26T06:54:56;1.95;;;1.33;;
32788;SDS011;19141;48.980;8.410;2023-02-26T06:57:21;1.65;;;1.17;;
32788;SDS011;19141;48.980;8.410;2023-02-26T06:59:46;1.10;;;1.10;;
32788;SDS011;19141;48.980;8.410;2023-02-26T07:02:16;1.35;;;1.17;;
32788;SDS011;19141;48.980;8.410;2023-02-26T07:04:43;1.60;;;1.50;;
32788;SDS011;19141;48.980;8.410;2023-02-26T07:07:09;2.60;;;2.05;;
32788;SDS011;19141;48.980;8.410;2023-02-26T07:09:34;1.73;;;1.25;;
32788;SDS011;19141;48.980;8.410;2023-02-26T07:12:00;1.58;;;1.23;;
32788;SDS011;19141;48.980;8.410;2023-02-26T07:14:25;2.30;;;1.88;;
32788;SDS011;19141;48.980;8.410;2023-02-26T07:16:50;1.13;;;1.02;;
32788;SDS011;19141;48.980;8.410;2023-02-26T07:19:16;1.42;;;1.20;;
32788;SDS011;19141;48.980;8.410;2023-02-26T07:21:41;1.30;;;1.00;;
32788;SDS011;19141;48.980;8.410;2023-02-26T07:24:07;1.13;;;1.00;;
32788;SDS011;19141;48.980;8.410;2023-02-26T07:26:32;2.45;;;1.80;;
32788;SDS011;19141;48.980;8.410;2023-02-26T07:28:58;2.15;;;1.55;;
32788;SDS011;19141;48.980;8.410;2023-02-26T07:31:23;2.15;;;1.42;;
32788;SDS011;19141;48.980;8.410;2023-02-26T07:33:49;1.38;;;1.27;;
32788;SDS011;19141;48.980;8.410;2023-02-26T07:36:14;1.40;;;1.08;;
32788;SDS011;19141;48.980;8.410;2023-02-26T07:38:39;1.83;;;1.45;;
32788;SDS011;19141;48.980;8.410;2023-02-26T07:41:05;1.70;;;0.82;;
32788;SDS011;19141;48.980;8.410;2023-02-26T07:43:30;2.85;;;1.60;;
32788;SDS011;19141;48.980;8.410;2023-02-26T07:45:56;1.60;;;0.98;;
32788;SDS011;19141;48.980;8.410;2023-02-26T07:48:21;1.33;;;1.20;;
32788;SDS011;19141;48.980;8.410;2023-02-26T07:50:46;2.15;;;1.20;;
32788;SDS011;19141;48.980;8.410;2023-02-26T07:53:16;1.20;;;0.93;;
32788;SDS011;19141;48.980;8.410;2023-02-26T07:55:41;1.58;;;1.48;;
32788;SDS011;19141;48.980;8.410;2023-02-26T07:58:07;1.38;;;1.27;;
32788;SDS011;19141;48.980;8.410;2023-02-26T08:00:32;1.88;;;1.67;;
32788;SDS011;19141;48.980;8.410;2023-02-26T08:02:58;4.72;;;1.98;;
32788;SDS011;19141;48.980;8.410;2023-02-26T08:05:23;2.58;;;1.13;;
32788;SDS011;19141;48.980;8.410;2023-02-26T08:07:49;1.77;;;1.40;;
32788;SDS011;19141;48.980;8.410;2023-02-26T08:10:14;2.25;;;1.52;;
32788;SDS011;19141;48.980;8.410;2023-02-26T08:12:39;1.38;;;1.15;;
32788;SDS011;19141;48.980;8.410;2023-02-26T08:15:05;1.67;;;1.35;;
32788;SDS011;19141;48.980;8.410;2023-02-26T08:17:31;1.30;;;1.20;;
32788;SDS011;19141;48.980;8.410;2023-02-26T08:19:57;4.43;;;1.45;;
32788;SDS011;19141;48.980;8.410;2023-02-26T08:22:22;2.33;;;2.03;;
32788;SDS011;19141;48.980;8.410;2023-02-26T08:24:48;4.32;;;1.17;;
32788;SDS011;19141;48.980;8.410;2023-02-26T08:27:14;2.00;;;1.80;;
32788;SDS011;19141;48.980;8.410;2023-02-26T08:29:40;1.60;;;1.50;;
32788;SDS011;19141;48.980;8.410;2023-02-26T08:32:05;1.80;;;1.17;;
32788;SDS011;19141;48.980;8.410;2023-02-26T08:34:31;1.25;;;1.15;;
32788;SDS011;19141;48.980;8.410;2023-02-26T08:36:56;2.13;;;1.08;;
32788;SDS011;19141;48.980;8.410;2023-02-26T08:39:21;3.33;;;1.33;;
32788;SDS011;19141;48.980;8.410;2023-02-26T08:41:47;2.35;;;1.33;;
32788;SDS011;19141;48.980;8.410;2023-02-26T08:44:12;1.20;;;1.10;;
32788;SDS011;19141;48.980;8.410;2023-02-26T08:46:38;1.15;;;1.05;;
32788;SDS011;19141;48.980;8.410;2023-02-26T08:49:03;1.52;;;1.20;;
32788;SDS011;19141;48.980;8.410;2023-02-26T08:51:28;1.88;;;1.20;;
32788;SDS011;19141;48.980;8.410;2023-02-26T08:53:54;1.85;;;0.95;;
32788;SDS011;19141;48.980;8.410;2023-02-26T08:56:20;1.00;;;0.95;;
32788;SDS011;19141;48.980;8.410;2023-02-26T08:58:46;1.20;;;1.10;;
32788;SDS011;19141;48.980;8.410;2023-02-26T09:01:11;1.55;;;0.95;;
32788;SDS011;19141;48.980;8.410;2023-02-26T09:03:37;1.13;;;1.02;;
32788;SDS011;19141;48.980;8.410;2023-02-26T09:06:02;1.70;;;0.90;;
32788;SDS011;19141;48.980;8.410;2023-02-26T09:08:29;0.93;;;0.93;;
32788;SDS011;19141;48.980;8.410;2023-02-26T09:11:00;0.75;;;0.75;;
32788;SDS011;19141;48.980;8.410;2023-02-26T09:13:26;0.73;;;0.73;;
32788;SDS011;19141;48.980;8.410;2023-02-26T09:15:52;1.20;;;1.10;;
32788;SDS011;19141;48.980;8.410;2023-02-26T09:18:18;4.35;;;1.00;;
32788;SDS011;19141;48.980;8.410;2023-02-26T09:20:43;0.93;;;0.80;;
32788;SDS011;19141;48.980;8.410;2023-02-26T09:23:09;0.70;;;0.70;;
32788;SDS011;19141;48.980;8.410;2023-02-26T09:25:35;1.85;;;1.00;;
32788;SDS011;19141;48.980;8.410;2023-02-26T09:28:01;1.10;;;1.00;;
32788;SDS011;19141;48.980;8.410;2023-02-26T09:30:27;1.65;;;1.00;;
32788;SDS011;19141;48.980;8.410;2023-02-26T09:32:52;3.80;;;1.33;;
32788;SDS011;19141;48.980;8.410;2023-02-26T09:35:17;1.48;;;1.15;;
32788;SDS011;19141;48.980;8.410;2023-02-26T09:37:43;1.45;;;1.00;;
32788;SDS011;19141;48.980;8.410;2023-02-26T09:43:07;1.83;;;1.08;;
32788;SDS011;19141;48.980;8.410;2023-02-26T09:45:56;0.80;;;0.80;;
32788;SDS011;19141;48.980;8.410;2023-02-26T09:48:26;0.70;;;0.70;;
32788;SDS011;19141;48.980;8.410;2023-02-26T09:50:55;0.60;;;0.60;;
32788;SDS011;19141;48.980;8.410;2023-02-26T09:53:29;1.15;;;1.05;;
32788;SDS011;19141;48.980;8.410;2023-02-26T09:56:04;1.50;;;0.93;;
32788;SDS011;19141;48.980;8.410;2023-02-26T09:58:51;1.00;;;0.90;;
32788;SDS011;19141;48.980;8.410;2023-02-26T10:12:05;1.10;;;0.68;;
32788;SDS011;19141;48.980;8.410;2023-02-26T10:17:17;0.60;;;0.60;;
32788;SDS011;19141;48.980;8.410;2023-02-26T10:19:48;0.95;;;0.63;;
32788;SDS011;19141;48.980;8.410;2023-02-26T10:22:31;2.10;;;0.80;;
32788;SDS011;19141;48.980;8.410;2023-02-26T10:25:10;0.40;;;0.40;;
32788;SDS011;19141;48.980;8.410;2023-02-26T10:27:49;0.65;;;0.57;;
32788;SDS011;19141;48.980;8.410;2023-02-26T10:33:26;1.20;;;1.10;;
32788;SDS011;19141;48.980;8.410;2023-02-26T10:35:57;0.60;;;0.60;;
32788;SDS011;19141;48.980;8.410;2023-02-26T10:38:41;1.38;;;0.70;;
32788;SDS011;19141;48.980;8.410;2023-02-26T10:41:19;1.40;;;0.65;;
32788;SDS011;19141;48.980;8.410;2023-02-26T10:43:50;0.43;;;0.43;;
32788;SDS011;19141;48.980;8.410;2023-02-26T10:46:36;0.43;;;0.43;;
32788;SDS011;19141;48.980;8.410;2023-02-26T10:49:24;0.55;;;0.55;;
32788;SDS011;19141;48.980;8.410;2023-02-26T10:57:27;0.45;;;0.40;;
32788;SDS011;19141;48.980;8.410;2023-02-26T10:59:58;0.52;;;0.52;;
32788;SDS011;19141;48.980;8.410;2023-02-26T11:04:59;0.30;;;0.30;;
32788;SDS011;19141;48.980;8.410;2023-02-26T11:07:25;3.40;;;0.80;;
32788;SDS011;19141;48.980;8.410;2023-02-26T11:09:54;0.68;;;0.68;;
32788;SDS011;19141;48.980;8.410;2023-02-26T11:12:19;0.60;;;0.60;;
32788;SDS011;19141;48.980;8.410;2023-02-26T11:14:48;0.63;;;0.63;;
32788;SDS011;19141;48.980;8.410;2023-02-26T11:17:17;0.70;;;0.70;;
32788;SDS011;19141;48.980;8.410;2023-02-26T11:19:51;0.60;;;0.60;;
32788;SDS011;19141;48.980;8.410;2023-02-26T11:22:21;0.60;;;0.60;;
32788;SDS011;19141;48.980;8.410;2023-02-26T11:24:47;0.57;;;0.57;;
32788;SDS011;19141;48.980;8.410;2023-02-26T11:27:21;0.82;;;0.57;;
32788;SDS011;19141;48.980;8.410;2023-02-26T11:29:54;0.30;;;0.30;;
32788;SDS011;19141;48.980;8.410;2023-02-26T11:32:23;0.45;;;0.43;;
32788;SDS011;19141;48.980;8.410;2023-02-26T11:34:54;0.95;;;0.82;;
32788;SDS011;19141;48.980;8.410;2023-02-26T11:37:23;0.80;;;0.77;;
32788;SDS011;19141;48.980;8.410;2023-02-26T11:39:58;0.60;;;0.60;;
32788;SDS011;19141;48.980;8.410;2023-02-26T11:42:29;0.70;;;0.70;;
32788;SDS011;19141;48.980;8.410;2023-02-26T11:45:02;0.73;;;0.73;;
32788;SDS011;19141;48.980;8.410;2023-02-26T11:47:29;0.80;;;0.50;;
32788;SDS011;19141;48.980;8.410;2023-02-26T11:50:00;0.40;;;0.40;;
32788;SDS011;19141;48.980;8.410;2023-02-26T11:52:31;0.30;;;0.30;;
32788;SDS011;19141;48.980;8.410;2023-02-26T11:55:15;0.40;;;0.40;;
32788;SDS011;19141;48.980;8.410;2023-02-26T11:57:44;0.38;;;0.38;;
32788;SDS011;19141;48.980;8.410;2023-02-26T12:00:18;0.80;;;0.60;;
32788;SDS011;19141;48.980;8.410;2023-02-26T12:02:47;0.50;;;0.50;;
32788;SDS011;19141;48.980;8.410;2023-02-26T12:05:14;1.23;;;0.77;;
32788;SDS011;19141;48.980;8.410;2023-02-26T12:07:41;0.70;;;0.70;;
32788;SDS011;19141;48.980;8.410;2023-02-26T12:10:17;0.45;;;0.32;;
32788;SDS011;19141;48.980;8.410;2023-02-26T12:21:21;0.55;;;0.55;;
32788;SDS011;19141;48.980;8.410;2023-02-26T12:32:26;1.00;;;0.52;;
32788;SDS011;19141;48.980;8.410;2023-02-26T12:43:44;0.30;;;0.30;;
32788;SDS011;19141;48.980;8.410;2023-02-26T12:54:46;0.88;;;0.47;;
32788;SDS011;19141;48.980;8.410;2023-02-26T13:05:02;0.60;;;0.60;;
32788;SDS011;19141;48.980;8.410;2023-02-26T13:10:38;0.50;;;0.50;;
32788;SDS011;19141;48.980;8.410;2023-02-26T13:16:13;0.38;;;0.30;;
32788;SDS011;19141;48.980;8.410;2023-02-26T13:21:21;2.35;;;1.67;;
32788;SDS011;19141;48.980;8.410;2023-02-26T13:23:51;1.33;;;0.70;;
32788;SDS011;19141;48.980;8.410;2023-02-26T13:26:23;0.40;;;0.40;;
32788;SDS011;19141;48.980;8.410;2023-02-26T13:28:53;0.50;;;0.50;;
32788;SDS011;19141;48.980;8.410;2023-02-26T13:34:00;0.75;;;0.57;;
32788;SDS011;19141;48.980;8.410;2023-02-26T13:36:31;0.40;;;0.40;;
32788;SDS011;19141;48.980;8.410;2023-02-26T13:41:57;0.40;;;0.40;;
32788;SDS011;19141;48.980;8.410;2023-02-26T13:44:41;0.38;;;0.38;;
32788;SDS011;19141;48.980;8.410;2023-02-26T13:47:33;0.63;;;0.50;;
32788;SDS011;19141;48.980;8.410;2023-02-26T13:55:48;0.57;;;0.50;;
32788;SDS011;19141;48.980;8.410;2023-02-26T14:00:56;0.45;;;0.45;;
32788;SDS011;19141;48.980;8.410;2023-02-26T14:03:29;0.40;;;0.40;;
32788;SDS011;19141;48.980;8.410;2023-02-26T14:06:06;0.47;;;0.47;;
32788;SDS011;19141;48.980;8.410;2023-02-26T14:11:04;0.50;;;0.50;;
32788;SDS011;19141;48.980;8.410;2023-02-26T14:13:41;0.40;;;0.40;;
32788;SDS011;19141;48.980;8.410;2023-02-26T14:16:27;0.43;;;0.43;;
32788;SDS011;19141;48.980;8.410;2023-02-26T14:19:02;0.65;;;0.50;;
32788;SDS011;19141;48.980;8.410;2023-02-26T14:34:48;0.63;;;0.63;;
32788;SDS011;19141;48.980;8.410;2023-02-26T14:37:21;0.30;;;0.30;;
32788;SDS011;19141;48.980;8.410;2023-02-26T14:42:37;0.32;;;0.32;;
32788;SDS011;19141;48.980;8.410;2023-02-26T14:48:00;0.40;;;0.40;;
32788;SDS011;19141;48.980;8.410;2023-02-26T14:50:32;0.50;;;0.50;;
32788;SDS011;19141;48.980;8.410;2023-02-26T14:53:29;0.60;;;0.60;;
32788;SDS011;19141;48.980;8.410;2023-02-26T14:56:08;0.43;;;0.43;;
32788;SDS011;19141;48.980;8.410;2023-02-26T15:06:54;0.43;;;0.43;;
32788;SDS011;19141;48.980;8.410;2023-02-26T15:09:42;0.30;;;0.30;;
32788;SDS011;19141;48.980;8.410;2023-02-26T15:16:43;0.40;;;0.40;;
32788;SDS011;19141;48.980;8.410;2023-02-26T15:18:48;0.70;;;0.70;;
32788;SDS011;19141;48.980;8.410;2023-02-26T15:26:32;0.30;;;0.30;;
32788;SDS011;19141;48.980;8.410;2023-02-26T15:29:02;0.50;;;0.50;;
32788;SDS011;19141;48.980;8.410;2023-02-26T15:31:32;0.65;;;0.45;;
32788;SDS011;19141;48.980;8.410;2023-02-26T15:34:00;0.50;;;0.50;;
32788;SDS011;19141;48.980;8.410;2023-02-26T15:36:27;1.00;;;0.57;;
32788;SDS011;19141;48.980;8.410;2023-02-26T15:38:55;0.60;;;0.60;;
32788;SDS011;19141;48.980;8.410;2023-02-26T15:41:29;0.40;;;0.40;;
32788;SDS011;19141;48.980;8.410;2023-02-26T15:43:58;1.25;;;0.85;;
32788;SDS011;19141;48.980;8.410;2023-02-26T15:46:31;0.70;;;0.65;;
32788;SDS011;19141;48.980;8.410;2023-02-26T15:49:11;0.93;;;0.55;;
32788;SDS011;19141;48.980;8.410;2023-02-26T15:51:40;0.35;;;0.32;;
32788;SDS011;19141;48.980;8.410;2023-02-26T15:56:38;0.40;;;0.40;;
32788;SDS011;19141;48.980;8.410;2023-02-26T15:59:12;0.95;;;0.70;;
32788;SDS011;19141;48.980;8.410;2023-02-26T16:01:41;0.40;;;0.40;;
32788;SDS011;19141;48.980;8.410;2023-02-26T16:04:10;0.88;;;0.70;;
32788;SDS011;19141;48.980;8.410;2023-02-26T16:06:42;0.30;;;0.30;;
32788;SDS011;19141;48.980;8.410;2023-02-26T16:09:19;0.30;;;0.30;;
32788;SDS011;19141;48.980;8.410;2023-02-26T16:12:07;0.38;;;0.38;;
32788;SDS011;19141;48.980;8.410;2023-02-26T16:14:37;0.50;;;0.45;;
32788;SDS011;19141;48.980;8.410;2023-02-26T16:17:05;1.65;;;0.43;;
32788;SDS011;19141;48.980;8.410;2023-02-26T16:19:40;0.75;;;0.45;;
32788;SDS011;19141;48.980;8.410;2023-02-26T16:24:42;0.50;;;0.50;;
32788;SDS011;19141;48.980;8.410;2023-02-26T16:27:08;0.55;;;0.50;;
32788;SDS011;19141;48.980;8.410;2023-02-26T16:29:38;0.50;;;0.50;;
32788;SDS011;19141;48.980;8.410;2023-02-26T16:32:14;2.25;;;0.82;;
32788;SDS011;19141;48.980;8.410;2023-02-26T16:34:52;0.47;;;0.47;;
32788;SDS011;19141;48.980;8.410;2023-02-26T16:42:21;0.32;;;0.32;;
32788;SDS011;19141;48.980;8.410;2023-02-26T16:47:42;0.47;;;0.47;;
32788;SDS011;19141;48.980;8.410;2023-02-26T16:50:28;0.73;;;0.73;;
32788;SDS011;19141;48.980;8.410;2023-02-26T16:52:58;0.43;;;0.43;;
32788;SDS011;19141;48.980;8.410;2023-02-26T16:55:27;0.35;;;0.35;;
32788;SDS011;19141;48.980;8.410;2023-02-26T16:57:56;0.45;;;0.45;;
32788;SDS011;19141;48.980;8.410;2023-02-26T17:00:23;0.52;;;0.47;;
32788;SDS011;19141;48.980;8.410;2023-02-26T17:03:09;0.60;;;0.40;;
32788;SDS011;19141;48.980;8.410;2023-02-26T17:05:38;0.55;;;0.50;;
32788;SDS011;19141;48.980;8.410;2023-02-26T17:08:08;0.32;;;0.32;;
32788;SDS011;19141;48.980;8.410;2023-02-26T17:10:49;0.85;;;0.63;;
32788;SDS011;19141;48.980;8.410;2023-02-26T17:13:28;0.45;;;0.45;;
32788;SDS011;19141;48.980;8.410;2023-02-26T17:16:03;0.40;;;0.40;;
32788;SDS011;19141;48.980;8.410;2023-02-26T17:18:32;0.22;;;0.22;;
32788;SDS011;19141;48.980;8.410;2023-02-26T17:20:58;0.22;;;0.22;;
32788;SDS011;19141;48.980;8.410;2023-02-26T17:23:26;0.40;;;0.40;;
32788;SDS011;19141;48.980;8.410;2023-02-26T17:25:54;0.38;;;0.38;;
32788;SDS011;19141;48.980;8.410;2023-02-26T17:28:22;0.30;;;0.30;;
32788;SDS011;19141;48.980;8.410;2023-02-26T17:30:50;0.80;;;0.47;;
32788;SDS011;19141;48.980;8.410;2023-02-26T17:33:16;0.82;;;0.60;;
32788;SDS011;19141;48.980;8.410;2023-02-26T17:35:41;1.15;;;0.95;;
32788;SDS011;19141;48.980;8.410;2023-02-26T17:38:11;0.35;;;0.35;;
32788;SDS011;19141;48.980;8.410;2023-02-26T17:40:38;1.17;;;0.40;;
32788;SDS011;19141;48.980;8.410;2023-02-26T17:43:09;0.57;;;0.57;;
32788;SDS011;19141;48.980;8.410;2023-02-26T17:45:35;0.40;;;0.40;;
32788;SDS011;19141;48.980;8.410;2023-02-26T17:48:04;0.70;;;0.70;;
32788;SDS011;19141;48.980;8.410;2023-02-26T17:50:49;0.57;;;0.50;;
32788;SDS011;19141;48.980;8.410;2023-02-26T17:53:17;0.40;;;0.40;;
32788;SDS011;19141;48.980;8.410;2023-02-26T17:55:44;0.50;;;0.50;;
32788;SDS011;19141;48.980;8.410;2023-02-26T17:58:15;0.47;;;0.47;;
32788;SDS011;19141;48.980;8.410;2023-02-26T18:00:42;0.63;;;0.43;;
32788;SDS011;19141;48.980;8.410;2023-02-26T18:03:09;0.55;;;0.55;;
32788;SDS011;19141;48.980;8.410;2023-02-26T18:05:34;0.55;;;0.50;;
32788;SDS011;19141;48.980;8.410;2023-02-26T18:08:06;1.42;;;0.45;;
32788;SDS011;19141;48.980;8.410;2023-02-26T18:10:43;0.50;;;0.50;;
32788;SDS011;19141;48.980;8.410;2023-02-26T18:13:09;0.68;;;0.68;;
32788;SDS011;19141;48.980;8.410;2023-02-26T18:15:35;0.30;;;0.30;;
32788;SDS011;19141;48.980;8.410;2023-02-26T18:18:00;0.30;;;0.30;;
32788;SDS011;19141;48.980;8.410;2023-02-26T18:20:26;0.40;;;0.40;;
32788;SDS011;19141;48.980;8.410;2023-02-26T18:22:52;0.47;;;0.47;;
32788;SDS011;19141;48.980;8.410;2023-02-26T18:25:17;0.50;;;0.50;;
32788;SDS011;19141;48.980;8.410;2023-02-26T18:27:43;0.40;;;0.40;;
32788;SDS011;19141;48.980;8.410;2023-02-26T18:30:19;2.08;;;0.40;;
32788;SDS011;19141;48.980;8.410;2023-02-26T18:32:47;0.38;;;0.38;;
32788;SDS011;19141;48.980;8.410;2023-02-26T18:35:12;0.30;;;0.30;;
32788;SDS011;19141;48.980;8.410;2023-02-26T18:37:38;0.38;;;0.38;;
32788;SDS011;19141;48.980;8.410;2023-02-26T18:40:03;0.20;;;0.20;;
32788;SDS011;19141;48.980;8.410;2023-02-26T18:42:29;0.40;;;0.40;;
32788;SDS011;19141;48.980;8.410;2023-02-26T18:44:56;1.30;;;0.52;;
32788;SDS011;19141;48.980;8.410;2023-02-26T18:47:22;0.40;;;0.40;;
32788;SDS011;19141;48.980;8.410;2023-02-26T18:49:48;0.55;;;0.55;;
32788;SDS011;19141;48.980;8.410;2023-02-26T18:52:14;1.00;;;0.90;;
32788;SDS011;19141;48.980;8.410;2023-02-26T18:54:40;0.80;;;0.52;;
32788;SDS011;19141;48.980;8.410;2023-02-26T18:57:05;0.40;;;0.40;;
32788;SDS011;19141;48.980;8.410;2023-02-26T18:59:31;0.50;;;0.50;;
32788;SDS011;19141;48.980;8.410;2023-02-26T19:02:00;0.65;;;0.60;;
32788;SDS011;19141;48.980;8.410;2023-02-26T19:04:27;1.13;;;0.68;;
32788;SDS011;19141;48.980;8.410;2023-02-26T19:06:53;0.57;;;0.50;;
32788;SDS011;19141;48.980;8.410;2023-02-26T19:09:18;0.30;;;0.30;;
32788;SDS011;19141;48.980;8.410;2023-02-26T19:11:44;3.20;;;0.98;;
32788;SDS011;19141;48.980;8.410;2023-02-26T19:14:09;0.85;;;0.50;;
32788;SDS011;19141;48.980;8.410;2023-02-26T19:16:37;1.25;;;0.77;;
32788;SDS011;19141;48.980;8.410;2023-02-26T19:19:03;0.43;;;0.40;;
32788;SDS011;19141;48.980;8.410;2023-02-26T19:21:31;0.35;;;0.35;;
32788;SDS011;19141;48.980;8.410;2023-02-26T19:23:58;0.68;;;0.60;;
32788;SDS011;19141;48.980;8.410;2023-02-26T19:26:24;0.68;;;0.60;;
32788;SDS011;19141;48.980;8.410;2023-02-26T19:28:50;0.38;;;0.38;;
32788;SDS011;19141;48.980;8.410;2023-02-26T19:31:16;0.50;;;0.50;;
32788;SDS011;19141;48.980;8.410;2023-02-26T19:33:42;0.47;;;0.47;;
32788;SDS011;19141;48.980;8.410;2023-02-26T19:36:07;0.40;;;0.40;;
32788;SDS011;19141;48.980;8.410;2023-02-26T19:38:33;0.55;;;0.50;;
32788;SDS011;19141;48.980;8.410;2023-02-26T19:40:59;0.80;;;0.50;;
32788;SDS011;19141;48.980;8.410;2023-02-26T19:43:24;0.40;;;0.40;;
32788;SDS011;19141;48.980;8.410;2023-02-26T19:45:50;0.38;;;0.38;;
32788;SDS011;19141;48.980;8.410;2023-02-26T19:48:15;1.25;;;0.40;;
32788;SDS011;19141;48.980;8.410;2023-02-26T19:50:41;0.50;;;0.50;;
32788;SDS011;19141;48.980;8.410;2023-02-26T19:53:06;0.32;;;0.32;;
32788;SDS011;19141;48.980;8.410;2023-02-26T19:55:32;0.30;;;0.30;;
32788;SDS011;19141;48.980;8.410;2023-02-26T19:57:57;1.08;;;0.40;;
32788;SDS011;19141;48.980;8.410;2023-02-26T20:00:23;0.40;;;0.40;;
32788;SDS011;19141;48.980;8.410;2023-02-26T20:02:48;0.30;;;0.30;;
32788;SDS011;19141;48.980;8.410;2023-02-26T20:05:14;0.80;;;0.80;;
32788;SDS011;19141;48.980;8.410;2023-02-26T20:07:42;0.65;;;0.47;;
32788;SDS011;19141;48.980;8.410;2023-02-26T20:10:09;0.50;;;0.50;;
32788;SDS011;19141;48.980;8.410;2023-02-26T20:12:35;0.28;;;0.28;;
32788;SDS011;19141;48.980;8.410;2023-02-26T20:15:01;0.30;;;0.30;;
32788;SDS011;19141;48.980;8.410;2023-02-26T20:17:26;0.43;;;0.43;;
32788;SDS011;19141;48.980;8.410;2023-02-26T20:19:52;0.40;;;0.40;;
32788;SDS011;19141;48.980;8.410;2023-02-26T20:22:17;0.38;;;0.38;;
32788;SDS011;19141;48.980;8.410;2023-02-26T20:24:45;1.00;;;1.00;;
32788;SDS011;19141;48.980;8.410;2023-02-26T20:27:10;0.93;;;0.73;;
32788;SDS011;19141;48.980;8.410;2023-02-26T20:29:36;3.90;;;1.25;;
32788;SDS011;19141;48.980;8.410;2023-02-26T20:32:01;0.85;;;0.52;;
32788;SDS011;19141;48.980;8.410;2023-02-26T20:34:26;0.77;;;0.50;;
32788;SDS011;19141;48.980;8.410;2023-02-26T20:36:52;0.40;;;0.40;;
32788;SDS011;19141;48.980;8.410;2023-02-26T20:39:18;0.80;;;0.50;;
32788;SDS011;19141;48.980;8.410;2023-02-26T20:41:45;0.40;;;0.40;;
32788;SDS011;19141;48.980;8.410;2023-02-26T20:44:11;0.57;;;0.57;;
32788;SDS011;19141;48.980;8.410;2023-02-26T20:46:36;0.50;;;0.50;;
32788;SDS011;19141;48.980;8.410;2023-02-26T20:49:03;0.52;;;0.52;;
32788;SDS011;19141;48.980;8.410;2023-02-26T20:51:29;0.40;;;0.40;;
32788;SDS011;19141;48.980;8.410;2023-02-26T20:53:55;0.50;;;0.50;;
32788;SDS011;19141;48.980;8.410;2023-02-26T20:56:20;0.73;;;0.47;;
32788;SDS011;19141;48.980;8.410;2023-02-26T20:58:45;0.43;;;0.43;;
32788;SDS011;19141;48.980;8.410;2023-02-26T21:01:11;0.75;;;0.63;;
32788;SDS011;19141;48.980;8.410;2023-02-26T21:03:37;2.22;;;0.57;;
32788;SDS011;19141;48.980;8.410;2023-02-26T21:06:02;1.50;;;0.80;;
32788;SDS011;19141;48.980;8.410;2023-02-26T21:08:28;0.45;;;0.45;;
32788;SDS011;19141;48.980;8.410;2023-02-26T21:10:53;2.22;;;0.75;;
32788;SDS011;19141;48.980;8.410;2023-02-26T21:13:19;2.28;;;0.98;;
32788;SDS011;19141;48.980;8.410;2023-02-26T21:15:44;3.60;;;1.45;;
32788;SDS011;19141;48.980;8.410;2023-02-26T21:18:10;2.63;;;0.80;;
32788;SDS011;19141;48.980;8.410;2023-02-26T21:20:35;0.70;;;0.50;;
32788;SDS011;19141;48.980;8.410;2023-02-26T21:23:01;2.17;;;0.85;;
32788;SDS011;19141;48.980;8.410;2023-02-26T21:25:26;1.15;;;0.77;;
32788;SDS011;19141;48.980;8.410;2023-02-26T21:27:55;0.55;;;0.50;;
32788;SDS011;19141;48.980;8.410;2023-02-26T21:30:21;1.13;;;0.70;;
32788;SDS011;19141;48.980;8.410;2023-02-26T21:32:48;0.50;;;0.50;;
32788;SDS011;19141;48.980;8.410;2023-02-26T21:35:16;1.20;;;0.88;;
32788;SDS011;19141;48.980;8.410;2023-02-26T21:37:42;0.55;;;0.55;;
32788;SDS011;19141;48.980;8.410;2023-02-26T21:40:08;0.43;;;0.43;;
32788;SDS011;19141;48.980;8.410;2023-02-26T21:42:34;0.40;;;0.40;;
32788;SDS011;19141;48.980;8.410;2023-02-26T21:45:00;0.40;;;0.40;;
32788;SDS011;19141;48.980;8.410;2023-02-26T21:47:25;0.50;;;0.50;;
32788;SDS011;19141;48.980;8.410;2023-02-26T21:49:51;0.50;;;0.45;;
32788;SDS011;19141;48.980;8.410;2023-02-26T21:52:16;0.30;;;0.30;;
32788;SDS011;19141;48.980;8.410;2023-02-26T21:54:42;1.13;;;0.60;;
32788;SDS011;19141;48.980;8.410;2023-02-26T21:57:07;0.35;;;0.35;;
32788;SDS011;19141;48.980;8.410;2023-02-26T21:59:34;0.60;;;0.60;;
32788;SDS011;19141;48.980;8.410;2023-02-26T22:02:08;0.40;;;0.40;;
32788;SDS011;19141;48.980;8.410;2023-02-26T22:04:46;1.08;;;0.65;;
32788;SDS011;19141;48.980;8.410;2023-02-26T22:07:27;0.47;;;0.45;;
32788;SDS011;19141;48.980;8.410;2023-02-26T22:10:09;0.30;;;0.30;;
32788;SDS011;19141;48.980;8.410;2023-02-26T22:12:43;0.40;;;0.40;;
32788;SDS011;19141;48.980;8.410;2023-02-26T22:15:24;0.55;;;0.50;;
32788;SDS011;19141;48.980;8.410;2023-02-26T22:18:05;0.68;;;0.68;;
32788;SDS011;19141;48.980;8.410;2023-02-26T22:20:48;0.60;;;0.40;;
32788;SDS011;19141;48.980;8.410;2023-02-26T22:23:43;0.95;;;0.60;;
32788;SDS011;19141;48.980;8.410;2023-02-26T22:29:17;1.00;;;0.50;;
32788;SDS011;19141;48.980;8.410;2023-02-26T22:31:48;0.47;;;0.47;;
32788;SDS011;19141;48.980;8.410;2023-02-26T22:34:42;0.95;;;0.50;;
32788;SDS011;19141;48.980;8.410;2023-02-26T22:37:12;0.30;;;0.30;;
32788;SDS011;19141;48.980;8.410;2023-02-26T22:40:03;0.28;;;0.28;;
32788;SDS011;19141;48.980;8.410;2023-02-26T22:42:57;0.30;;;0.30;;
32788;SDS011;19141;48.980;8.410;2023-02-26T22:45:33;0.50;;;0.50;;
32788;SDS011;19141;48.980;8.410;2023-02-26T22:48:09;0.73;;;0.70;;